San Francisco, California
Traffic Map
Current Weather Conditions
San Francisco, California
Overcast
Overcast
54°
Feels Like: 54°
Wind Chill: 54° Ceiling: 7000
Heat Index: 54° Visibility: 10mi
Dew Point: 54° Wind: 12mph
Humidity: 100% Direction: 270° (W)
Pressure: 29.86in Gusts: 0mph
Raw Report DataKSFO 061056Z 27010KT 10SM FEW009 OVC070 12/12 A2986 RMK AO2 SLP110 T01220122
Traffic Incident Summary
Active as of:
Severity:
Category:
InformationThere was an issue retrieving the traffic information for this location. Please try a different location or try again shortly.
Advertisements
Track Severe Weather on mobile